PWSweather.com
Personal Weather Stations
Station Observations
270882
Flassian, LimouxFR 11300

FlassianLimouxFR 11300

Lat: 43.071798, Lon: 2.217292

Elevation: 165

Station Type: Oregon WMR 200

http://www.meteolimoux.fr

High Low Average
Temperature 70.9°F21.6°C 47.3°F8.5°C 55.6°F13.1°C
Dew Point 52.9°F11.6°C 36.3°F2.4°C 44.7°F7.1°C
Winds 15.4 mph 24.8 kmh Calm Calm 2.0 mph SSE3.2 kmh SSE
Wind Gusts 30.9 mph49.7 kmh -- 5.0 mph8.0 kmh
Humidity 90% 32% 70%
Pressure 29.51 in999.3 mb 29.31 in992.6 mb -
Precipitation 0.00 in0.0 mm - -
Hour Temp Dew Point Humidity Winds Wind Gusts Pressure Precip Precip Rate Daily Precip Total
12:02 AM 53.1°F11.7°C 49.8°F9.9°C 89% 6.0 mph NE9.7 kmh NE 12.8 mph20.6 kmh 29.51 in999.3 mb - 0.00 in0.0 mm 0.00 in0.0 mm
12:07 AM 53.1°F11.7°C 49.8°F9.9°C 89% 4.5 mph E7.2 kmh E 10.1 mph16.3 kmh 29.51 in999.3 mb - 0.00 in0.0 mm 0.00 in0.0 mm
12:12 AM 53.1°F11.7°C 49.8°F9.9°C 89% 5.4 mph E8.7 kmh E 11.0 mph17.7 kmh 29.51 in999.3 mb - 0.00 in0.0 mm 0.00 in0.0 mm
12:17 AM 52.9°F11.6°C 49.5°F9.7°C 88% 4.0 mph NE6.4 kmh NE 8.7 mph14.0 kmh 29.51 in999.3 mb - 0.00 in0.0 mm 0.00 in0.0 mm
12:22 AM 52.9°F11.6°C 49.5°F9.7°C 88% 2.5 mph NNE4.0 kmh NNE 5.1 mph8.2 kmh 29.51 in999.3 mb - 0.00 in0.0 mm 0.00 in0.0 mm
12:27 AM 52.9°F11.6°C 49.5°F9.7°C 88% 3.4 mph NNE5.5 kmh NNE 6.5 mph10.5 kmh 29.51 in999.3 mb - 0.00 in0.0 mm 0.00 in0.0 mm
12:32 AM 52.7°F11.5°C 49.3°F9.6°C 88% 3.1 mph NNE5.0 kmh NNE 6.0 mph9.7 kmh 29.51 in999.3 mb - 0.00 in0.0 mm 0.00 in0.0 mm
12:37 AM 52.7°F11.5°C 49.3°F9.6°C 88% 3.1 mph NNE5.0 kmh NNE 6.9 mph11.1 kmh 29.51 in999.3 mb - 0.00 in0.0 mm 0.00 in0.0 mm
12:42 AM 52.7°F11.5°C 49.3°F9.6°C 88% 4.7 mph NE7.6 kmh NE 8.5 mph13.7 kmh 29.51 in999.3 mb - 0.00 in0.0 mm 0.00 in0.0 mm
12:47 AM 52.7°F11.5°C 49.3°F9.6°C 88% 3.4 mph NNE5.5 kmh NNE 6.9 mph11.1 kmh 29.51 in999.3 mb - 0.00 in0.0 mm 0.00 in0.0 mm
12:52 AM 52.5°F11.4°C 49.1°F9.5°C 88% 2.5 mph NNE4.0 kmh NNE 4.3 mph6.9 kmh 29.51 in999.3 mb - 0.00 in0.0 mm 0.00 in0.0 mm
12:57 AM 52.5°F11.4°C 49.1°F9.5°C 88% 2.0 mph NE3.2 kmh NE 7.6 mph12.2 kmh 29.51 in999.3 mb - 0.00 in0.0 mm 0.00 in0.0 mm
01:02 AM 52.3°F11.3°C 48.9°F9.4°C 88% 2.9 mph N4.7 kmh N 6.0 mph9.7 kmh 29.51 in999.3 mb - 0.00 in0.0 mm 0.00 in0.0 mm
01:07 AM 52.2°F11.2°C 48.7°F9.3°C 88% 0.7 mph N1.1 kmh N 2.7 mph4.3 kmh 29.51 in999.3 mb - 0.00 in0.0 mm 0.00 in0.0 mm
01:12 AM 52.2°F11.2°C 48.7°F9.3°C 88% 1.3 mph NNE2.1 kmh NNE 2.9 mph4.7 kmh 29.51 in999.3 mb - 0.00 in0.0 mm 0.00 in0.0 mm
01:17 AM 51.8°F11.0°C 48.4°F9.1°C 88% 2.2 mph NE3.5 kmh NE 5.1 mph8.2 kmh 29.51 in999.3 mb - 0.00 in0.0 mm 0.00 in0.0 mm
01:22 AM 51.8°F11.0°C 48.4°F9.1°C 88% 3.8 mph N6.1 kmh N 6.9 mph11.1 kmh 29.51 in999.3 mb - 0.00 in0.0 mm 0.00 in0.0 mm
01:27 AM 51.8°F11.0°C 48.4°F9.1°C 88% 3.6 mph NNE5.8 kmh NNE 7.6 mph12.2 kmh 29.51 in999.3 mb - 0.00 in0.0 mm 0.00 in0.0 mm
01:32 AM 51.8°F11.0°C 48.4°F9.1°C 88% 1.6 mph NNE2.6 kmh NNE 3.1 mph5.0 kmh 29.48 in998.3 mb - 0.00 in0.0 mm 0.00 in0.0 mm
01:37 AM 51.8°F11.0°C 48.4°F9.1°C 88% 4.3 mph N6.9 kmh N 5.8 mph9.3 kmh 29.48 in998.3 mb - 0.00 in0.0 mm 0.00 in0.0 mm
01:42 AM 51.6°F10.9°C 48.2°F9.0°C 88% 0.4 mph NE0.6 kmh NE 3.1 mph5.0 kmh 29.48 in998.3 mb - 0.00 in0.0 mm 0.00 in0.0 mm
01:47 AM 51.6°F10.9°C 48.6°F9.2°C 89% Calm Calm -- 29.48 in998.3 mb - 0.00 in0.0 mm 0.00 in0.0 mm
01:52 AM 51.6°F10.9°C 48.6°F9.2°C 89% 3.4 mph NNE5.5 kmh NNE 6.3 mph10.1 kmh 29.48 in998.3 mb - 0.00 in0.0 mm 0.00 in0.0 mm
01:57 AM 51.8°F11.0°C 48.9°F9.4°C 90% 4.0 mph NNE6.4 kmh NNE 6.0 mph9.7 kmh 29.48 in998.3 mb - 0.00 in0.0 mm 0.00 in0.0 mm
02:02 AM 51.8°F11.0°C 48.9°F9.4°C 90% 3.8 mph NE6.1 kmh NE 5.6 mph9.0 kmh 29.48 in998.3 mb - 0.00 in0.0 mm 0.00 in0.0 mm
02:07 AM 51.8°F11.0°C 48.9°F9.4°C 90% 2.2 mph NE3.5 kmh NE 4.5 mph7.2 kmh 29.48 in998.3 mb - 0.00 in0.0 mm 0.00 in0.0 mm
02:12 AM 51.6°F10.9°C 48.6°F9.2°C 89% 0.9 mph NE1.4 kmh NE 3.4 mph5.5 kmh 29.48 in998.3 mb - 0.00 in0.0 mm 0.00 in0.0 mm
02:17 AM 51.6°F10.9°C 48.6°F9.2°C 89% 1.1 mph E1.8 kmh E 4.5 mph7.2 kmh 29.48 in998.3 mb - 0.00 in0.0 mm 0.00 in0.0 mm
02:22 AM 51.6°F10.9°C 48.6°F9.2°C 89% 0.2 mph NE0.3 kmh NE 3.1 mph5.0 kmh 29.48 in998.3 mb - 0.00 in0.0 mm 0.00 in0.0 mm
02:27 AM 51.6°F10.9°C 48.6°F9.2°C 89% Calm Calm -- 29.48 in998.3 mb - 0.00 in0.0 mm 0.00 in0.0 mm
02:32 AM 51.4°F10.8°C 48.4°F9.1°C 89% Calm Calm -- 29.48 in998.3 mb - 0.00 in0.0 mm 0.00 in0.0 mm
02:37 AM 51.3°F10.7°C 48.2°F9.0°C 89% 0.7 mph WSW1.1 kmh WSW 2.5 mph4.0 kmh 29.48 in998.3 mb - 0.00 in0.0 mm 0.00 in0.0 mm
02:42 AM 51.1°F10.6°C 48.0°F8.9°C 89% Calm Calm -- 29.48 in998.3 mb - 0.00 in0.0 mm 0.00 in0.0 mm
02:47 AM 51.1°F10.6°C 48.0°F8.9°C 89% Calm Calm -- 29.45 in997.3 mb - 0.00 in0.0 mm 0.00 in0.0 mm
02:52 AM 50.7°F10.4°C 47.3°F8.5°C 88% Calm Calm -- 29.45 in997.3 mb - 0.00 in0.0 mm 0.00 in0.0 mm
02:57 AM 50.5°F10.3°C 47.1°F8.4°C 88% 2.0 mph WSW3.2 kmh WSW 3.4 mph5.5 kmh 29.45 in997.3 mb - 0.00 in0.0 mm 0.00 in0.0 mm
03:02 AM 50.4°F10.2°C 46.9°F8.3°C 88% 0.9 mph WSW1.4 kmh WSW 3.1 mph5.0 kmh 29.45 in997.3 mb - 0.00 in0.0 mm 0.00 in0.0 mm
03:07 AM 50.4°F10.2°C 46.9°F8.3°C 88% Calm Calm -- 29.45 in997.3 mb - 0.00 in0.0 mm 0.00 in0.0 mm
03:12 AM 50.2°F10.1°C 47.1°F8.4°C 89% 0.7 mph S1.1 kmh S 2.9 mph4.7 kmh 29.45 in997.3 mb - 0.00 in0.0 mm 0.00 in0.0 mm
03:17 AM 50.0°F10.0°C 46.6°F8.1°C 88% Calm Calm -- 29.42 in996.3 mb - 0.00 in0.0 mm 0.00 in0.0 mm
03:22 AM 49.6°F9.8°C 46.2°F7.9°C 88% 0.4 mph SE0.6 kmh SE 2.9 mph4.7 kmh 29.42 in996.3 mb - 0.00 in0.0 mm 0.00 in0.0 mm
03:27 AM 49.5°F9.7°C 46.0°F7.8°C 88% 2.5 mph SE4.0 kmh SE 3.6 mph5.8 kmh 29.42 in996.3 mb - 0.00 in0.0 mm 0.00 in0.0 mm
03:32 AM 49.3°F9.6°C 45.9°F7.7°C 88% 0.7 mph S1.1 kmh S 0.7 mph1.1 kmh 29.48 in998.3 mb - 0.00 in0.0 mm 0.00 in0.0 mm
03:37 AM 49.3°F9.6°C 45.9°F7.7°C 88% Calm Calm -- 29.48 in998.3 mb - 0.00 in0.0 mm 0.00 in0.0 mm
03:42 AM 49.1°F9.5°C 45.7°F7.6°C 88% Calm Calm -- 29.48 in998.3 mb - 0.00 in0.0 mm 0.00 in0.0 mm
03:47 AM 49.1°F9.5°C 45.7°F7.6°C 88% Calm Calm -- 29.45 in997.3 mb - 0.00 in0.0 mm 0.00 in0.0 mm
03:52 AM 49.1°F9.5°C 46.0°F7.8°C 89% Calm Calm -- 29.45 in997.3 mb - 0.00 in0.0 mm 0.00 in0.0 mm
03:57 AM 48.9°F9.4°C 45.9°F7.7°C 89% Calm Calm -- 29.45 in997.3 mb - 0.00 in0.0 mm 0.00 in0.0 mm
04:02 AM 48.7°F9.3°C 45.3°F7.4°C 88% Calm Calm -- 29.45 in997.3 mb - 0.00 in0.0 mm 0.00 in0.0 mm
04:07 AM 48.6°F9.2°C 45.5°F7.5°C 89% 0.7 mph SW1.1 kmh SW 3.6 mph5.8 kmh 29.45 in997.3 mb - 0.00 in0.0 mm 0.00 in0.0 mm
04:12 AM 48.6°F9.2°C 45.5°F7.5°C 89% 0.4 mph SSW0.6 kmh SSW 2.9 mph4.7 kmh 29.45 in997.3 mb - 0.00 in0.0 mm 0.00 in0.0 mm
04:17 AM 48.4°F9.1°C 45.3°F7.4°C 89% 1.1 mph S1.8 kmh S 3.8 mph6.1 kmh 29.45 in997.3 mb - 0.00 in0.0 mm 0.00 in0.0 mm
04:22 AM 48.4°F9.1°C 45.3°F7.4°C 89% 2.2 mph SSW3.5 kmh SSW 4.5 mph7.2 kmh 29.45 in997.3 mb - 0.00 in0.0 mm 0.00 in0.0 mm
04:27 AM 48.4°F9.1°C 45.3°F7.4°C 89% 2.2 mph S3.5 kmh S 4.0 mph6.4 kmh 29.45 in997.3 mb - 0.00 in0.0 mm 0.00 in0.0 mm
04:32 AM 48.4°F9.1°C 45.3°F7.4°C 89% 0.9 mph SW1.4 kmh SW 3.6 mph5.8 kmh 29.45 in997.3 mb - 0.00 in0.0 mm 0.00 in0.0 mm
04:37 AM 48.2°F9.0°C 45.1°F7.3°C 89% 0.7 mph SW1.1 kmh SW 2.9 mph4.7 kmh 29.45 in997.3 mb - 0.00 in0.0 mm 0.00 in0.0 mm
04:42 AM 48.2°F9.0°C 45.1°F7.3°C 89% 0.2 mph W0.3 kmh W 3.1 mph5.0 kmh 29.45 in997.3 mb - 0.00 in0.0 mm 0.00 in0.0 mm
04:47 AM 48.2°F9.0°C 45.1°F7.3°C 89% 2.2 mph SW3.5 kmh SW 4.7 mph7.6 kmh 29.45 in997.3 mb - 0.00 in0.0 mm 0.00 in0.0 mm
04:52 AM 48.2°F9.0°C 45.1°F7.3°C 89% 3.6 mph SSW5.8 kmh SSW 6.3 mph10.1 kmh 29.45 in997.3 mb - 0.00 in0.0 mm 0.00 in0.0 mm
04:57 AM 48.2°F9.0°C 45.1°F7.3°C 89% 3.4 mph SSW5.5 kmh SSW 5.4 mph8.7 kmh 29.45 in997.3 mb - 0.00 in0.0 mm 0.00 in0.0 mm
05:02 AM 48.2°F9.0°C 45.5°F7.5°C 90% 1.1 mph W1.8 kmh W 3.8 mph6.1 kmh 29.42 in996.3 mb - 0.00 in0.0 mm 0.00 in0.0 mm
05:07 AM 48.2°F9.0°C 45.5°F7.5°C 90% 1.3 mph WSW2.1 kmh WSW 4.0 mph6.4 kmh 29.42 in996.3 mb - 0.00 in0.0 mm 0.00 in0.0 mm
05:12 AM 48.0°F8.9°C 45.0°F7.2°C 89% 2.0 mph WSW3.2 kmh WSW 3.6 mph5.8 kmh 29.42 in996.3 mb - 0.00 in0.0 mm 0.00 in0.0 mm
05:17 AM 48.2°F9.0°C 45.1°F7.3°C 89% 0.2 mph SSW0.3 kmh SSW 1.8 mph2.9 kmh 29.45 in997.3 mb - 0.00 in0.0 mm 0.00 in0.0 mm
05:22 AM 48.2°F9.0°C 45.5°F7.5°C 90% 1.1 mph SW1.8 kmh SW 2.9 mph4.7 kmh 29.45 in997.3 mb - 0.00 in0.0 mm 0.00 in0.0 mm
05:27 AM 48.2°F9.0°C 45.1°F7.3°C 89% 0.7 mph S1.1 kmh S 3.1 mph5.0 kmh 29.45 in997.3 mb - 0.00 in0.0 mm 0.00 in0.0 mm
05:32 AM 48.0°F8.9°C 45.0°F7.2°C 89% 2.0 mph S3.2 kmh S 4.3 mph6.9 kmh 29.45 in997.3 mb - 0.00 in0.0 mm 0.00 in0.0 mm
05:37 AM 47.8°F8.8°C 44.8°F7.1°C 89% 1.6 mph SW2.6 kmh SW 4.0 mph6.4 kmh 29.45 in997.3 mb - 0.00 in0.0 mm 0.00 in0.0 mm
05:42 AM 47.7°F8.7°C 44.6°F7.0°C 89% 3.1 mph SW5.0 kmh SW 5.6 mph9.0 kmh 29.45 in997.3 mb - 0.00 in0.0 mm 0.00 in0.0 mm
05:47 AM 47.7°F8.7°C 44.6°F7.0°C 89% 3.6 mph SW5.8 kmh SW 5.8 mph9.3 kmh 29.42 in996.3 mb - 0.00 in0.0 mm 0.00 in0.0 mm
05:52 AM 47.5°F8.6°C 44.4°F6.9°C 89% 3.1 mph SW5.0 kmh SW 6.3 mph10.1 kmh 29.42 in996.3 mb - 0.00 in0.0 mm 0.00 in0.0 mm
05:57 AM 47.3°F8.5°C 44.2°F6.8°C 89% 3.1 mph SW5.0 kmh SW 5.8 mph9.3 kmh 29.42 in996.3 mb - 0.00 in0.0 mm 0.00 in0.0 mm
06:02 AM 47.5°F8.6°C 44.4°F6.9°C 89% 0.7 mph S1.1 kmh S 2.9 mph4.7 kmh 29.42 in996.3 mb - 0.00 in0.0 mm 0.00 in0.0 mm
06:07 AM 47.5°F8.6°C 44.4°F6.9°C 89% 1.8 mph S2.9 kmh S 4.0 mph6.4 kmh 29.42 in996.3 mb - 0.00 in0.0 mm 0.00 in0.0 mm
06:12 AM 47.5°F8.6°C 44.4°F6.9°C 89% 0.7 mph S1.1 kmh S 3.6 mph5.8 kmh 29.42 in996.3 mb - 0.00 in0.0 mm 0.00 in0.0 mm
06:17 AM 47.5°F8.6°C 44.4°F6.9°C 89% Calm Calm -- 29.42 in996.3 mb - 0.00 in0.0 mm 0.00 in0.0 mm
06:22 AM 47.5°F8.6°C 44.4°F6.9°C 89% Calm Calm -- 29.42 in996.3 mb - 0.00 in0.0 mm 0.00 in0.0 mm
06:27 AM 47.7°F8.7°C 44.6°F7.0°C 89% 1.8 mph SSE2.9 kmh SSE 4.5 mph7.2 kmh 29.42 in996.3 mb - 0.00 in0.0 mm 0.00 in0.0 mm
06:32 AM 47.7°F8.7°C 44.6°F7.0°C 89% 1.6 mph S2.6 kmh S 4.0 mph6.4 kmh 29.42 in996.3 mb - 0.00 in0.0 mm 0.00 in0.0 mm
06:37 AM 47.7°F8.7°C 44.6°F7.0°C 89% Calm Calm -- 29.42 in996.3 mb - 0.00 in0.0 mm 0.00 in0.0 mm
06:42 AM 47.7°F8.7°C 44.6°F7.0°C 89% 2.7 mph SW4.3 kmh SW 5.8 mph9.3 kmh 29.42 in996.3 mb - 0.00 in0.0 mm 0.00 in0.0 mm
06:47 AM 47.7°F8.7°C 45.0°F7.2°C 90% 0.9 mph SSW1.4 kmh SSW 4.9 mph7.9 kmh 29.39 in995.3 mb - 0.00 in0.0 mm 0.00 in0.0 mm
06:52 AM 47.7°F8.7°C 45.0°F7.2°C 90% 2.7 mph WSW4.3 kmh WSW 5.1 mph8.2 kmh 29.39 in995.3 mb - 0.00 in0.0 mm 0.00 in0.0 mm
06:57 AM 47.7°F8.7°C 45.0°F7.2°C 90% 2.7 mph W4.3 kmh W 4.5 mph7.2 kmh 29.39 in995.3 mb - 0.00 in0.0 mm 0.00 in0.0 mm
07:02 AM 47.7°F8.7°C 44.6°F7.0°C 89% 2.2 mph SW3.5 kmh SW 3.6 mph5.8 kmh 29.42 in996.3 mb - 0.00 in0.0 mm 0.00 in0.0 mm
07:07 AM 47.7°F8.7°C 44.6°F7.0°C 89% 1.3 mph W2.1 kmh W 3.1 mph5.0 kmh 29.42 in996.3 mb - 0.00 in0.0 mm 0.00 in0.0 mm
07:12 AM 47.7°F8.7°C 44.6°F7.0°C 89% Calm Calm -- 29.42 in996.3 mb - 0.00 in0.0 mm 0.00 in0.0 mm
07:17 AM 47.7°F8.7°C 44.6°F7.0°C 89% Calm Calm -- 29.42 in996.3 mb - 0.00 in0.0 mm 0.00 in0.0 mm
07:22 AM 47.8°F8.8°C 44.8°F7.1°C 89% Calm Calm -- 29.42 in996.3 mb - 0.00 in0.0 mm 0.00 in0.0 mm
07:27 AM 47.8°F8.8°C 44.8°F7.1°C 89% Calm Calm -- 29.42 in996.3 mb - 0.00 in0.0 mm 0.00 in0.0 mm
07:32 AM 48.2°F9.0°C 45.5°F7.5°C 90% 0.4 mph S0.6 kmh S 2.9 mph4.7 kmh 29.42 in996.3 mb - 0.00 in0.0 mm 0.00 in0.0 mm
07:37 AM 48.2°F9.0°C 45.5°F7.5°C 90% 3.1 mph SW5.0 kmh SW 6.3 mph10.1 kmh 29.42 in996.3 mb - 0.00 in0.0 mm 0.00 in0.0 mm
07:42 AM 48.4°F9.1°C 45.5°F7.5°C 90% 0.9 mph NW1.4 kmh NW 3.1 mph5.0 kmh 29.42 in996.3 mb - 0.00 in0.0 mm 0.00 in0.0 mm
07:47 AM 48.6°F9.2°C 45.7°F7.6°C 90% 0.4 mph WSW0.6 kmh WSW 2.9 mph4.7 kmh 29.42 in996.3 mb - 0.00 in0.0 mm 0.00 in0.0 mm
07:52 AM 48.6°F9.2°C 45.5°F7.5°C 89% 2.2 mph SW3.5 kmh SW 3.8 mph6.1 kmh 29.42 in996.3 mb - 0.00 in0.0 mm 0.00 in0.0 mm
07:57 AM 48.6°F9.2°C 45.5°F7.5°C 89% 1.8 mph WSW2.9 kmh WSW 3.6 mph5.8 kmh 29.42 in996.3 mb - 0.00 in0.0 mm 0.00 in0.0 mm
08:02 AM 48.6°F9.2°C 45.1°F7.3°C 88% 1.8 mph SSW2.9 kmh SSW 3.1 mph5.0 kmh 29.42 in996.3 mb - 0.00 in0.0 mm 0.00 in0.0 mm
08:07 AM 48.6°F9.2°C 45.1°F7.3°C 88% 3.4 mph WSW5.5 kmh WSW 5.1 mph8.2 kmh 29.42 in996.3 mb - 0.00 in0.0 mm 0.00 in0.0 mm
08:12 AM 48.7°F9.3°C 45.3°F7.4°C 88% 2.9 mph W4.7 kmh W 4.5 mph7.2 kmh 29.42 in996.3 mb - 0.00 in0.0 mm 0.00 in0.0 mm
08:17 AM 48.9°F9.4°C 45.5°F7.5°C 88% 1.6 mph WSW2.6 kmh WSW 2.9 mph4.7 kmh 29.42 in996.3 mb - 0.00 in0.0 mm 0.00 in0.0 mm
08:22 AM 49.1°F9.5°C 45.7°F7.6°C 88% 2.7 mph WSW4.3 kmh WSW 4.3 mph6.9 kmh 29.42 in996.3 mb - 0.00 in0.0 mm 0.00 in0.0 mm
08:27 AM 49.5°F9.7°C 46.0°F7.8°C 88% 1.8 mph WSW2.9 kmh WSW 3.4 mph5.5 kmh 29.42 in996.3 mb - 0.00 in0.0 mm 0.00 in0.0 mm
08:32 AM 49.8°F9.9°C 46.8°F8.2°C 89% 0.9 mph WNW1.4 kmh WNW 2.0 mph3.2 kmh 29.42 in996.3 mb - 0.00 in0.0 mm 0.00 in0.0 mm
08:37 AM 50.4°F10.2°C 47.3°F8.5°C 89% 1.3 mph SW2.1 kmh SW 3.1 mph5.0 kmh 29.42 in996.3 mb - 0.00 in0.0 mm 0.00 in0.0 mm
08:42 AM 50.7°F10.4°C 47.7°F8.7°C 89% 2.0 mph S3.2 kmh S 4.0 mph6.4 kmh 29.42 in996.3 mb - 0.00 in0.0 mm 0.00 in0.0 mm
08:47 AM 50.7°F10.4°C 47.3°F8.5°C 88% 3.4 mph SSW5.5 kmh SSW 5.4 mph8.7 kmh 29.42 in996.3 mb - 0.00 in0.0 mm 0.00 in0.0 mm
08:52 AM 50.5°F10.3°C 46.6°F8.1°C 86% 1.6 mph SSW2.6 kmh SSW 4.5 mph7.2 kmh 29.42 in996.3 mb - 0.00 in0.0 mm 0.00 in0.0 mm
08:57 AM 50.5°F10.3°C 46.2°F7.9°C 85% 1.1 mph SW1.8 kmh SW 2.5 mph4.0 kmh 29.42 in996.3 mb - 0.00 in0.0 mm 0.00 in0.0 mm
09:02 AM 50.5°F10.3°C 46.6°F8.1°C 86% 2.2 mph SW3.5 kmh SW 3.8 mph6.1 kmh 29.42 in996.3 mb - 0.00 in0.0 mm 0.00 in0.0 mm
09:07 AM 50.5°F10.3°C 46.6°F8.1°C 86% 2.9 mph SW4.7 kmh SW 4.7 mph7.6 kmh 29.42 in996.3 mb - 0.00 in0.0 mm 0.00 in0.0 mm
09:12 AM 50.7°F10.4°C 46.8°F8.2°C 86% 1.1 mph SW1.8 kmh SW 3.6 mph5.8 kmh 29.42 in996.3 mb - 0.00 in0.0 mm 0.00 in0.0 mm
09:17 AM 50.7°F10.4°C 46.8°F8.2°C 86% 0.7 mph S1.1 kmh S 2.9 mph4.7 kmh 29.45 in997.3 mb - 0.00 in0.0 mm 0.00 in0.0 mm
09:22 AM 50.9°F10.5°C 46.9°F8.3°C 86% 2.0 mph S3.2 kmh S 3.1 mph5.0 kmh 29.45 in997.3 mb - 0.00 in0.0 mm 0.00 in0.0 mm
09:27 AM 51.4°F10.8°C 47.5°F8.6°C 86% 1.8 mph SW2.9 kmh SW 2.7 mph4.3 kmh 29.45 in997.3 mb - 0.00 in0.0 mm 0.00 in0.0 mm
09:32 AM 51.8°F11.0°C 47.8°F8.8°C 86% 1.3 mph SSW2.1 kmh SSW 2.9 mph4.7 kmh 29.45 in997.3 mb - 0.00 in0.0 mm 0.00 in0.0 mm
09:37 AM 52.2°F11.2°C 47.8°F8.8°C 85% 1.8 mph SSW2.9 kmh SSW 3.1 mph5.0 kmh 29.45 in997.3 mb - 0.00 in0.0 mm 0.00 in0.0 mm
09:42 AM 52.7°F11.5°C 48.6°F9.2°C 86% 2.7 mph WSW4.3 kmh WSW 4.3 mph6.9 kmh 29.45 in997.3 mb - 0.00 in0.0 mm 0.00 in0.0 mm
09:47 AM 53.2°F11.8°C 49.1°F9.5°C 86% 2.2 mph SW3.5 kmh SW 3.8 mph6.1 kmh 29.45 in997.3 mb - 0.00 in0.0 mm 0.00 in0.0 mm
09:52 AM 54.0°F12.2°C 48.9°F9.4°C 83% 1.6 mph S2.6 kmh S 4.3 mph6.9 kmh 29.45 in997.3 mb - 0.00 in0.0 mm 0.00 in0.0 mm
09:57 AM 54.9°F12.7°C 50.2°F10.1°C 84% 2.2 mph SSE3.5 kmh SSE 4.5 mph7.2 kmh 29.45 in997.3 mb - 0.00 in0.0 mm 0.00 in0.0 mm
10:02 AM 55.2°F12.9°C 49.8°F9.9°C 82% 0.9 mph SSE1.4 kmh SSE 3.1 mph5.0 kmh 29.45 in997.3 mb - 0.00 in0.0 mm 0.00 in0.0 mm
10:07 AM 56.1°F13.4°C 51.1°F10.6°C 83% 0.9 mph WNW1.4 kmh WNW 3.4 mph5.5 kmh 29.45 in997.3 mb - 0.00 in0.0 mm 0.00 in0.0 mm
10:12 AM 56.8°F13.8°C 51.8°F11.0°C 83% 1.1 mph SW1.8 kmh SW 2.7 mph4.3 kmh 29.45 in997.3 mb - 0.00 in0.0 mm 0.00 in0.0 mm
10:17 AM 58.3°F14.6°C 52.9°F11.6°C 82% 0.2 mph S0.3 kmh S 2.0 mph3.2 kmh 29.45 in997.3 mb - 0.00 in0.0 mm 0.00 in0.0 mm
10:22 AM 58.5°F14.7°C 51.3°F10.7°C 77% 0.4 mph SE0.6 kmh SE 0.4 mph0.6 kmh 29.45 in997.3 mb - 0.00 in0.0 mm 0.00 in0.0 mm
10:27 AM 58.5°F14.7°C 50.9°F10.5°C 76% 2.5 mph S4.0 kmh S 3.8 mph6.1 kmh 29.45 in997.3 mb - 0.00 in0.0 mm 0.00 in0.0 mm
10:32 AM 58.1°F14.5°C 50.5°F10.3°C 76% 0.9 mph S1.4 kmh S 4.5 mph7.2 kmh 29.45 in997.3 mb - 0.00 in0.0 mm 0.00 in0.0 mm
10:37 AM 57.9°F14.4°C 49.6°F9.8°C 74% 1.3 mph SSE2.1 kmh SSE 4.7 mph7.6 kmh 29.45 in997.3 mb - 0.00 in0.0 mm 0.00 in0.0 mm
10:42 AM 58.1°F14.5°C 49.8°F9.9°C 74% 0.9 mph NNW1.4 kmh NNW 3.6 mph5.8 kmh 29.45 in997.3 mb - 0.00 in0.0 mm 0.00 in0.0 mm
10:47 AM 58.3°F14.6°C 50.4°F10.2°C 75% 1.3 mph NNW2.1 kmh NNW 4.0 mph6.4 kmh 29.45 in997.3 mb - 0.00 in0.0 mm 0.00 in0.0 mm
10:52 AM 58.8°F14.9°C 51.3°F10.7°C 76% 1.1 mph NNE1.8 kmh NNE 3.6 mph5.8 kmh 29.45 in997.3 mb - 0.00 in0.0 mm 0.00 in0.0 mm
10:57 AM 59.4°F15.2°C 51.4°F10.8°C 75% 0.2 mph N0.3 kmh N 2.9 mph4.7 kmh 29.45 in997.3 mb - 0.00 in0.0 mm 0.00 in0.0 mm
11:02 AM 59.7°F15.4°C 51.4°F10.8°C 74% Calm Calm 0.9 mph1.4 kmh 29.42 in996.3 mb - 0.00 in0.0 mm 0.00 in0.0 mm
11:07 AM 60.4°F15.8°C 52.2°F11.2°C 74% 0.2 mph NE0.3 kmh NE 1.8 mph2.9 kmh 29.42 in996.3 mb - 0.00 in0.0 mm 0.00 in0.0 mm
11:12 AM 60.8°F16.0°C 52.2°F11.2°C 73% 0.7 mph S1.1 kmh S 2.7 mph4.3 kmh 29.42 in996.3 mb - 0.00 in0.0 mm 0.00 in0.0 mm
11:17 AM 61.2°F16.2°C 52.2°F11.2°C 72% 2.0 mph SSW3.2 kmh SSW 4.7 mph7.6 kmh 29.39 in995.3 mb - 0.00 in0.0 mm 0.00 in0.0 mm
11:22 AM 62.1°F16.7°C 52.5°F11.4°C 71% 0.7 mph SW1.1 kmh SW 3.8 mph6.1 kmh 29.39 in995.3 mb - 0.00 in0.0 mm 0.00 in0.0 mm
11:27 AM 62.4°F16.9°C 52.5°F11.4°C 70% 0.2 mph SSW0.3 kmh SSW 2.2 mph3.5 kmh 29.39 in995.3 mb - 0.00 in0.0 mm 0.00 in0.0 mm
11:32 AM 62.6°F17.0°C 51.1°F10.6°C 66% 1.3 mph SW2.1 kmh SW 4.3 mph6.9 kmh 29.39 in995.3 mb - 0.00 in0.0 mm 0.00 in0.0 mm
11:37 AM 63.3°F17.4°C 51.8°F11.0°C 66% 0.2 mph W0.3 kmh W 1.8 mph2.9 kmh 29.39 in995.3 mb - 0.00 in0.0 mm 0.00 in0.0 mm
11:42 AM 63.5°F17.5°C 50.2°F10.1°C 62% 1.8 mph S2.9 kmh S 3.8 mph6.1 kmh 29.39 in995.3 mb - 0.00 in0.0 mm 0.00 in0.0 mm
11:47 AM 63.1°F17.3°C 49.1°F9.5°C 60% 0.7 mph SW1.1 kmh SW 4.3 mph6.9 kmh 29.39 in995.3 mb - 0.00 in0.0 mm 0.00 in0.0 mm
11:52 AM 63.1°F17.3°C 48.6°F9.2°C 59% 2.5 mph NE4.0 kmh NE 5.4 mph8.7 kmh 29.39 in995.3 mb - 0.00 in0.0 mm 0.00 in0.0 mm
11:57 AM 63.9°F17.7°C 49.6°F9.8°C 60% 1.1 mph SE1.8 kmh SE 4.9 mph7.9 kmh 29.39 in995.3 mb - 0.00 in0.0 mm 0.00 in0.0 mm
12:02 PM 64.4°F18.0°C 49.8°F9.9°C 59% 2.0 mph SSW3.2 kmh SSW 4.7 mph7.6 kmh 29.39 in995.3 mb - 0.00 in0.0 mm 0.00 in0.0 mm
12:07 PM 64.0°F17.8°C 47.5°F8.6°C 55% 0.9 mph SW1.4 kmh SW 3.1 mph5.0 kmh 29.39 in995.3 mb - 0.00 in0.0 mm 0.00 in0.0 mm
12:12 PM 63.9°F17.7°C 47.8°F8.8°C 56% 0.2 mph NW0.3 kmh NW 2.2 mph3.5 kmh 29.39 in995.3 mb - 0.00 in0.0 mm 0.00 in0.0 mm
12:17 PM 63.9°F17.7°C 47.8°F8.8°C 56% 0.4 mph NNE0.6 kmh NNE 3.6 mph5.8 kmh 29.39 in995.3 mb - 0.00 in0.0 mm 0.00 in0.0 mm
12:22 PM 63.9°F17.7°C 47.8°F8.8°C 56% Calm Calm -- 29.39 in995.3 mb - 0.00 in0.0 mm 0.00 in0.0 mm
12:27 PM 63.7°F17.6°C 46.8°F8.2°C 54% Calm Calm -- 29.39 in995.3 mb - 0.00 in0.0 mm 0.00 in0.0 mm
12:32 PM 63.7°F17.6°C 47.3°F8.5°C 55% 0.7 mph SE1.1 kmh SE 4.9 mph7.9 kmh 29.39 in995.3 mb - 0.00 in0.0 mm 0.00 in0.0 mm
12:37 PM 64.0°F17.8°C 48.0°F8.9°C 56% 0.9 mph WSW1.4 kmh WSW 3.8 mph6.1 kmh 29.39 in995.3 mb - 0.00 in0.0 mm 0.00 in0.0 mm
12:42 PM 63.5°F17.5°C 46.6°F8.1°C 54% 0.9 mph WSW1.4 kmh WSW 3.4 mph5.5 kmh 29.39 in995.3 mb - 0.00 in0.0 mm 0.00 in0.0 mm
12:47 PM 63.9°F17.7°C 46.9°F8.3°C 54% 0.9 mph SE1.4 kmh SE 4.3 mph6.9 kmh 29.39 in995.3 mb - 0.00 in0.0 mm 0.00 in0.0 mm
12:52 PM 64.0°F17.8°C 46.6°F8.1°C 53% 0.7 mph NNE1.1 kmh NNE 4.0 mph6.4 kmh 29.39 in995.3 mb - 0.00 in0.0 mm 0.00 in0.0 mm
12:57 PM 64.4°F18.0°C 47.5°F8.6°C 54% Calm Calm -- 29.39 in995.3 mb - 0.00 in0.0 mm 0.00 in0.0 mm
01:02 PM 64.6°F18.1°C 47.1°F8.4°C 53% Calm Calm -- 29.39 in995.3 mb - 0.00 in0.0 mm 0.00 in0.0 mm
01:07 PM 64.8°F18.2°C 47.3°F8.5°C 53% 3.4 mph NNE5.5 kmh NNE 6.7 mph10.8 kmh 29.39 in995.3 mb - 0.00 in0.0 mm 0.00 in0.0 mm
01:12 PM 64.9°F18.3°C 47.5°F8.6°C 53% 0.9 mph NNE1.4 kmh NNE 4.9 mph7.9 kmh 29.39 in995.3 mb - 0.00 in0.0 mm 0.00 in0.0 mm
01:17 PM 64.9°F18.3°C 46.9°F8.3°C 52% 2.0 mph N3.2 kmh N 7.2 mph11.6 kmh 29.39 in995.3 mb - 0.00 in0.0 mm 0.00 in0.0 mm
01:22 PM 65.1°F18.4°C 47.1°F8.4°C 52% 4.3 mph N6.9 kmh N 4.3 mph6.9 kmh 29.39 in995.3 mb - 0.00 in0.0 mm 0.00 in0.0 mm
01:27 PM 65.3°F18.5°C 47.3°F8.5°C 52% 3.6 mph NNE5.8 kmh NNE 3.6 mph5.8 kmh 29.39 in995.3 mb - 0.00 in0.0 mm 0.00 in0.0 mm
01:32 PM 65.3°F18.5°C 47.3°F8.5°C 52% 3.8 mph NNE6.1 kmh NNE 3.8 mph6.1 kmh 29.36 in994.2 mb - 0.00 in0.0 mm 0.00 in0.0 mm
01:37 PM 65.5°F18.6°C 47.5°F8.6°C 52% 5.1 mph ENE8.2 kmh ENE 8.5 mph13.7 kmh 29.36 in994.2 mb - 0.00 in0.0 mm 0.00 in0.0 mm
01:42 PM 66.0°F18.9°C 47.8°F8.8°C 52% 2.9 mph E4.7 kmh E 5.8 mph9.3 kmh 29.36 in994.2 mb - 0.00 in0.0 mm 0.00 in0.0 mm
01:57 PM 67.1°F19.5°C 48.4°F9.1°C 51% 2.5 mph N4.0 kmh N 6.3 mph10.1 kmh 29.36 in994.2 mb - 0.00 in0.0 mm 0.00 in0.0 mm
02:02 PM 67.1°F19.5°C 47.8°F8.8°C 50% 3.6 mph NNE5.8 kmh NNE 9.2 mph14.8 kmh 29.36 in994.2 mb - 0.00 in0.0 mm 0.00 in0.0 mm
02:07 PM 67.3°F19.6°C 48.0°F8.9°C 50% 0.9 mph N1.4 kmh N 6.0 mph9.7 kmh 29.36 in994.2 mb - 0.00 in0.0 mm 0.00 in0.0 mm
02:12 PM 68.0°F20.0°C 48.2°F9.0°C 49% 1.6 mph N2.6 kmh N 6.5 mph10.5 kmh 29.36 in994.2 mb - 0.00 in0.0 mm 0.00 in0.0 mm
02:17 PM 67.8°F19.9°C 48.0°F8.9°C 49% 0.4 mph NNE0.6 kmh NNE 6.9 mph11.1 kmh 29.36 in994.2 mb - 0.00 in0.0 mm 0.00 in0.0 mm
02:32 PM 68.9°F20.5°C 47.8°F8.8°C 47% 0.7 mph S1.1 kmh S 3.6 mph5.8 kmh 29.34 in993.6 mb - 0.00 in0.0 mm 0.00 in0.0 mm
02:37 PM 69.3°F20.7°C 47.1°F8.4°C 45% 0.2 mph E0.3 kmh E 2.7 mph4.3 kmh 29.34 in993.6 mb - 0.00 in0.0 mm 0.00 in0.0 mm
02:42 PM 69.3°F20.7°C 45.9°F7.7°C 43% 1.3 mph ENE2.1 kmh ENE 7.4 mph11.9 kmh 29.34 in993.6 mb - 0.00 in0.0 mm 0.00 in0.0 mm
02:47 PM 69.4°F20.8°C 46.6°F8.1°C 44% 1.3 mph E2.1 kmh E 7.2 mph11.6 kmh 29.31 in992.6 mb - 0.00 in0.0 mm 0.00 in0.0 mm
02:52 PM 69.4°F20.8°C 44.1°F6.7°C 40% 3.8 mph NE6.1 kmh NE 7.8 mph12.6 kmh 29.31 in992.6 mb - 0.00 in0.0 mm 0.00 in0.0 mm
02:57 PM 69.8°F21.0°C 45.1°F7.3°C 41% 3.1 mph ENE5.0 kmh ENE 9.6 mph15.4 kmh 29.31 in992.6 mb - 0.00 in0.0 mm 0.00 in0.0 mm
03:02 PM 70.0°F21.1°C 43.2°F6.2°C 38% 4.5 mph NE7.2 kmh NE 8.7 mph14.0 kmh 29.34 in993.6 mb - 0.00 in0.0 mm 0.00 in0.0 mm
03:07 PM 70.5°F21.4°C 39.2°F4.0°C 32% 3.1 mph E5.0 kmh E 10.7 mph17.2 kmh 29.34 in993.6 mb - 0.00 in0.0 mm 0.00 in0.0 mm
03:12 PM 70.5°F21.4°C 39.2°F4.0°C 32% 2.5 mph NW4.0 kmh NW 8.1 mph13.0 kmh 29.34 in993.6 mb - 0.00 in0.0 mm 0.00 in0.0 mm
03:17 PM 70.7°F21.5°C 41.7°F5.4°C 35% 4.3 mph NW6.9 kmh NW 9.8 mph15.8 kmh 29.34 in993.6 mb - 0.00 in0.0 mm 0.00 in0.0 mm
03:22 PM 70.9°F21.6°C 40.5°F4.7°C 33% 2.2 mph N3.5 kmh N 7.2 mph11.6 kmh 29.34 in993.6 mb - 0.00 in0.0 mm 0.00 in0.0 mm
03:27 PM 70.7°F21.5°C 40.3°F4.6°C 33% 4.9 mph N7.9 kmh N 10.3 mph16.6 kmh 29.34 in993.6 mb - 0.00 in0.0 mm 0.00 in0.0 mm
03:32 PM 70.9°F21.6°C 39.6°F4.2°C 32% 1.6 mph NW2.6 kmh NW 6.0 mph9.7 kmh 29.31 in992.6 mb - 0.00 in0.0 mm 0.00 in0.0 mm
03:37 PM 70.9°F21.6°C 39.6°F4.2°C 32% 2.0 mph NW3.2 kmh NW 6.9 mph11.1 kmh 29.31 in992.6 mb - 0.00 in0.0 mm 0.00 in0.0 mm
03:42 PM 70.2°F21.2°C 39.0°F3.9°C 32% 4.0 mph NNW6.4 kmh NNW 7.8 mph12.6 kmh 29.31 in992.6 mb - 0.00 in0.0 mm 0.00 in0.0 mm
03:47 PM 69.6°F20.9°C 39.2°F4.0°C 33% 6.3 mph N10.1 kmh N 12.1 mph19.5 kmh 29.36 in994.2 mb - 0.00 in0.0 mm 0.00 in0.0 mm
03:52 PM 69.1°F20.6°C 38.8°F3.8°C 33% 5.8 mph N9.3 kmh N 9.2 mph14.8 kmh 29.36 in994.2 mb - 0.00 in0.0 mm 0.00 in0.0 mm
03:57 PM 69.1°F20.6°C 39.6°F4.2°C 34% 4.7 mph NNW7.6 kmh NNW 7.6 mph12.2 kmh 29.36 in994.2 mb - 0.00 in0.0 mm 0.00 in0.0 mm
04:02 PM 68.7°F20.4°C 39.9°F4.4°C 35% 2.2 mph N3.5 kmh N 6.7 mph10.8 kmh 29.34 in993.6 mb - 0.00 in0.0 mm 0.00 in0.0 mm
04:07 PM 68.7°F20.4°C 40.6°F4.8°C 36% 1.1 mph N1.8 kmh N 5.6 mph9.0 kmh 29.34 in993.6 mb - 0.00 in0.0 mm 0.00 in0.0 mm
04:12 PM 68.5°F20.3°C 41.2°F5.1°C 37% 0.2 mph NW0.3 kmh NW 2.7 mph4.3 kmh 29.34 in993.6 mb - 0.00 in0.0 mm 0.00 in0.0 mm
04:17 PM 68.5°F20.3°C 41.2°F5.1°C 37% 0.2 mph SE0.3 kmh SE 2.2 mph3.5 kmh 29.36 in994.2 mb - 0.00 in0.0 mm 0.00 in0.0 mm
04:22 PM 68.4°F20.2°C 40.5°F4.7°C 36% 2.5 mph NNE4.0 kmh NNE 6.0 mph9.7 kmh 29.36 in994.2 mb - 0.00 in0.0 mm 0.00 in0.0 mm
04:27 PM 68.2°F20.1°C 41.0°F5.0°C 37% 2.9 mph NNE4.7 kmh NNE 6.3 mph10.1 kmh 29.36 in994.2 mb - 0.00 in0.0 mm 0.00 in0.0 mm
04:32 PM 68.0°F20.0°C 40.1°F4.5°C 36% 1.6 mph N2.6 kmh N 5.6 mph9.0 kmh 29.34 in993.6 mb - 0.00 in0.0 mm 0.00 in0.0 mm
04:37 PM 68.0°F20.0°C 40.8°F4.9°C 37% 1.1 mph N1.8 kmh N 4.9 mph7.9 kmh 29.34 in993.6 mb - 0.00 in0.0 mm 0.00 in0.0 mm
04:42 PM 67.8°F19.9°C 41.4°F5.2°C 38% Calm Calm -- 29.34 in993.6 mb - 0.00 in0.0 mm 0.00 in0.0 mm
04:47 PM 67.6°F19.8°C 41.9°F5.5°C 39% 1.3 mph NNW2.1 kmh NNW 5.1 mph8.2 kmh 29.34 in993.6 mb - 0.00 in0.0 mm 0.00 in0.0 mm
04:52 PM 67.3°F19.6°C 42.1°F5.6°C 40% 1.8 mph NNE2.9 kmh NNE 6.3 mph10.1 kmh 29.34 in993.6 mb - 0.00 in0.0 mm 0.00 in0.0 mm
04:57 PM 66.9°F19.4°C 41.9°F5.5°C 40% 3.4 mph N5.5 kmh N 6.0 mph9.7 kmh 29.34 in993.6 mb - 0.00 in0.0 mm 0.00 in0.0 mm
05:02 PM 65.5°F18.6°C 38.5°F3.6°C 37% 2.5 mph NW4.0 kmh NW 5.4 mph8.7 kmh 29.34 in993.6 mb - 0.00 in0.0 mm 0.00 in0.0 mm
05:07 PM 63.5°F17.5°C 37.4°F3.0°C 38% 6.5 mph W10.5 kmh W 17.7 mph28.5 kmh 29.34 in993.6 mb - 0.00 in0.0 mm 0.00 in0.0 mm
05:12 PM 61.9°F16.6°C 37.4°F3.0°C 40% 10.7 mph WNW17.2 kmh WNW 24.4 mph39.3 kmh 29.34 in993.6 mb - 0.00 in0.0 mm 0.00 in0.0 mm
05:17 PM 60.8°F16.0°C 36.3°F2.4°C 40% 15.4 mph WNW24.8 kmh WNW 30.9 mph49.7 kmh 29.36 in994.2 mb - 0.00 in0.0 mm 0.00 in0.0 mm
05:22 PM 59.7°F15.4°C 39.0°F3.9°C 46% 10.1 mph WNW16.3 kmh WNW 23.0 mph37.0 kmh 29.36 in994.2 mb - 0.00 in0.0 mm 0.00 in0.0 mm
05:27 PM 59.4°F15.2°C 39.2°F4.0°C 47% 11.2 mph WNW18.0 kmh WNW 21.5 mph34.6 kmh 29.36 in994.2 mb - 0.00 in0.0 mm 0.00 in0.0 mm
05:32 PM 59.0°F15.0°C 39.9°F4.4°C 49% 11.2 mph WNW18.0 kmh WNW 21.0 mph33.8 kmh 29.36 in994.2 mb - 0.00 in0.0 mm 0.00 in0.0 mm
05:37 PM 58.8°F14.9°C 40.3°F4.6°C 50% 7.6 mph NW12.2 kmh NW 17.0 mph27.4 kmh 29.36 in994.2 mb - 0.00 in0.0 mm 0.00 in0.0 mm
05:42 PM 58.5°F14.7°C 41.0°F5.0°C 52% 6.9 mph W11.1 kmh W 12.3 mph19.8 kmh 29.36 in994.2 mb - 0.00 in0.0 mm 0.00 in0.0 mm
05:47 PM 58.5°F14.7°C 41.4°F5.2°C 53% 6.5 mph WSW10.5 kmh WSW 15.4 mph24.8 kmh 29.36 in994.2 mb - 0.00 in0.0 mm 0.00 in0.0 mm
05:52 PM 58.5°F14.7°C 41.0°F5.0°C 52% 6.3 mph NNW10.1 kmh NNW 12.5 mph20.1 kmh 29.36 in994.2 mb - 0.00 in0.0 mm 0.00 in0.0 mm
05:57 PM 58.8°F14.9°C 41.2°F5.1°C 52% 4.5 mph NNE7.2 kmh NNE 7.2 mph11.6 kmh 29.36 in994.2 mb - 0.00 in0.0 mm 0.00 in0.0 mm
06:02 PM 59.0°F15.0°C 41.4°F5.2°C 52% 5.4 mph NNW8.7 kmh NNW 8.9 mph14.3 kmh 29.34 in993.6 mb - 0.00 in0.0 mm 0.00 in0.0 mm
06:07 PM 58.8°F14.9°C 41.2°F5.1°C 52% 4.5 mph N7.2 kmh N 6.7 mph10.8 kmh 29.34 in993.6 mb - 0.00 in0.0 mm 0.00 in0.0 mm
06:12 PM 59.0°F15.0°C 41.0°F5.0°C 51% 3.1 mph NW5.0 kmh NW 5.6 mph9.0 kmh 29.34 in993.6 mb - 0.00 in0.0 mm 0.00 in0.0 mm
06:17 PM 59.0°F15.0°C 41.4°F5.2°C 52% 3.6 mph NW5.8 kmh NW 6.9 mph11.1 kmh 29.36 in994.2 mb - 0.00 in0.0 mm 0.00 in0.0 mm
06:22 PM 59.0°F15.0°C 41.4°F5.2°C 52% 1.8 mph N2.9 kmh N 5.1 mph8.2 kmh 29.36 in994.2 mb - 0.00 in0.0 mm 0.00 in0.0 mm
06:27 PM 59.0°F15.0°C 41.4°F5.2°C 52% Calm Calm -- 29.36 in994.2 mb - 0.00 in0.0 mm 0.00 in0.0 mm
06:32 PM 58.8°F14.9°C 41.7°F5.4°C 53% 2.0 mph NW3.2 kmh NW 6.7 mph10.8 kmh 29.39 in995.3 mb - 0.00 in0.0 mm 0.00 in0.0 mm
06:37 PM 58.5°F14.7°C 41.9°F5.5°C 54% 4.0 mph NW6.4 kmh NW 9.8 mph15.8 kmh 29.39 in995.3 mb - 0.00 in0.0 mm 0.00 in0.0 mm
06:42 PM 58.1°F14.5°C 41.5°F5.3°C 54% 8.3 mph WNW13.4 kmh WNW 15.4 mph24.8 kmh 29.39 in995.3 mb - 0.00 in0.0 mm 0.00 in0.0 mm
06:47 PM 57.7°F14.3°C 41.2°F5.1°C 54% 7.8 mph WSW12.6 kmh WSW 7.8 mph12.6 kmh 29.39 in995.3 mb - 0.00 in0.0 mm 0.00 in0.0 mm
06:52 PM 57.7°F14.3°C 41.2°F5.1°C 54% 6.5 mph W10.5 kmh W 14.8 mph23.8 kmh 29.39 in995.3 mb - 0.00 in0.0 mm 0.00 in0.0 mm
06:57 PM 57.6°F14.2°C 40.6°F4.8°C 53% 3.6 mph WNW5.8 kmh WNW 9.2 mph14.8 kmh 29.39 in995.3 mb - 0.00 in0.0 mm 0.00 in0.0 mm
07:02 PM 57.4°F14.1°C 40.5°F4.7°C 53% 2.9 mph WSW4.7 kmh WSW 8.5 mph13.7 kmh 29.39 in995.3 mb - 0.00 in0.0 mm 0.00 in0.0 mm
07:07 PM 57.2°F14.0°C 40.8°F4.9°C 54% 0.2 mph SW0.3 kmh SW 2.7 mph4.3 kmh 29.39 in995.3 mb - 0.00 in0.0 mm 0.00 in0.0 mm
07:12 PM 56.8°F13.8°C 40.5°F4.7°C 54% 2.2 mph SW3.5 kmh SW 4.3 mph6.9 kmh 29.39 in995.3 mb - 0.00 in0.0 mm 0.00 in0.0 mm
07:17 PM 56.7°F13.7°C 40.3°F4.6°C 54% 3.6 mph SSW5.8 kmh SSW 5.8 mph9.3 kmh 29.39 in995.3 mb - 0.00 in0.0 mm 0.00 in0.0 mm
07:22 PM 56.7°F13.7°C 40.3°F4.6°C 54% 2.0 mph WSW3.2 kmh WSW 5.4 mph8.7 kmh 29.39 in995.3 mb - 0.00 in0.0 mm 0.00 in0.0 mm
07:27 PM 56.7°F13.7°C 40.6°F4.8°C 55% Calm Calm -- 29.39 in995.3 mb - 0.00 in0.0 mm 0.00 in0.0 mm
07:32 PM 56.3°F13.5°C 40.8°F4.9°C 56% Calm Calm -- 29.39 in995.3 mb - 0.00 in0.0 mm 0.00 in0.0 mm
07:37 PM 55.9°F13.3°C 40.5°F4.7°C 56% 0.2 mph NW0.3 kmh NW 3.6 mph5.8 kmh 29.39 in995.3 mb - 0.00 in0.0 mm 0.00 in0.0 mm
07:42 PM 55.9°F13.3°C 40.5°F4.7°C 56% 0.9 mph NW1.4 kmh NW 2.7 mph4.3 kmh 29.39 in995.3 mb - 0.00 in0.0 mm 0.00 in0.0 mm
07:47 PM 55.9°F13.3°C 41.4°F5.2°C 58% Calm Calm -- 29.42 in996.3 mb - 0.00 in0.0 mm 0.00 in0.0 mm
07:52 PM 55.8°F13.2°C 40.8°F4.9°C 57% 0.2 mph NNW0.3 kmh NNW 3.8 mph6.1 kmh 29.42 in996.3 mb - 0.00 in0.0 mm 0.00 in0.0 mm
07:57 PM 55.9°F13.3°C 41.0°F5.0°C 57% 4.3 mph WNW6.9 kmh WNW 6.5 mph10.5 kmh 29.42 in996.3 mb - 0.00 in0.0 mm 0.00 in0.0 mm
08:02 PM 55.9°F13.3°C 41.0°F5.0°C 57% 3.1 mph NW5.0 kmh NW 8.3 mph13.4 kmh 29.45 in997.3 mb - 0.00 in0.0 mm 0.00 in0.0 mm
08:07 PM 55.9°F13.3°C 41.0°F5.0°C 57% 4.7 mph N7.6 kmh N 9.8 mph15.8 kmh 29.45 in997.3 mb - 0.00 in0.0 mm 0.00 in0.0 mm
08:12 PM 55.6°F13.1°C 40.6°F4.8°C 57% 4.3 mph NNW6.9 kmh NNW 9.6 mph15.4 kmh 29.45 in997.3 mb - 0.00 in0.0 mm 0.00 in0.0 mm
08:17 PM 55.6°F13.1°C 40.6°F4.8°C 57% 4.0 mph NW6.4 kmh NW 9.2 mph14.8 kmh 29.45 in997.3 mb - 0.00 in0.0 mm 0.00 in0.0 mm
08:22 PM 55.4°F13.0°C 40.5°F4.7°C 57% 3.6 mph NNW5.8 kmh NNW 9.8 mph15.8 kmh 29.45 in997.3 mb - 0.00 in0.0 mm 0.00 in0.0 mm
08:27 PM 55.4°F13.0°C 39.9°F4.4°C 56% 4.0 mph NW6.4 kmh NW 7.8 mph12.6 kmh 29.45 in997.3 mb - 0.00 in0.0 mm 0.00 in0.0 mm
08:32 PM 55.0°F12.8°C 39.7°F4.3°C 56% 2.2 mph W3.5 kmh W 5.6 mph9.0 kmh 29.42 in996.3 mb - 0.00 in0.0 mm 0.00 in0.0 mm
08:37 PM 54.9°F12.7°C 39.6°F4.2°C 56% 4.3 mph N6.9 kmh N 15.9 mph25.6 kmh 29.42 in996.3 mb - 0.00 in0.0 mm 0.00 in0.0 mm
08:42 PM 54.7°F12.6°C 39.4°F4.1°C 56% 3.4 mph E5.5 kmh E 6.5 mph10.5 kmh 29.42 in996.3 mb - 0.00 in0.0 mm 0.00 in0.0 mm
08:47 PM 54.3°F12.4°C 38.5°F3.6°C 55% 2.7 mph W4.3 kmh W 7.4 mph11.9 kmh 29.42 in996.3 mb - 0.00 in0.0 mm 0.00 in0.0 mm
08:52 PM 54.1°F12.3°C 38.8°F3.8°C 56% 7.8 mph NE12.6 kmh NE 22.6 mph36.4 kmh 29.42 in996.3 mb - 0.00 in0.0 mm 0.00 in0.0 mm
08:57 PM 53.8°F12.1°C 37.9°F3.3°C 55% 9.2 mph NNE14.8 kmh NNE 16.1 mph25.9 kmh 29.42 in996.3 mb - 0.00 in0.0 mm 0.00 in0.0 mm
09:02 PM 54.0°F12.2°C 38.1°F3.4°C 55% 6.0 mph ENE9.7 kmh ENE 12.8 mph20.6 kmh 29.45 in997.3 mb - 0.00 in0.0 mm 0.00 in0.0 mm
09:07 PM 53.6°F12.0°C 38.8°F3.8°C 57% 3.6 mph E5.8 kmh E 10.3 mph16.6 kmh 29.45 in997.3 mb - 0.00 in0.0 mm 0.00 in0.0 mm
09:12 PM 53.4°F11.9°C 38.7°F3.7°C 57% 3.8 mph SSE6.1 kmh SSE 8.1 mph13.0 kmh 29.45 in997.3 mb - 0.00 in0.0 mm 0.00 in0.0 mm
09:17 PM 53.1°F11.7°C 39.6°F4.2°C 60% 2.5 mph SSW4.0 kmh SSW 6.9 mph11.1 kmh 29.45 in997.3 mb - 0.00 in0.0 mm 0.00 in0.0 mm
09:22 PM 52.5°F11.4°C 39.9°F4.4°C 62% 5.4 mph S8.7 kmh S 7.2 mph11.6 kmh 29.45 in997.3 mb - 0.00 in0.0 mm 0.00 in0.0 mm
09:27 PM 52.2°F11.2°C 39.9°F4.4°C 63% 3.8 mph E6.1 kmh E 10.3 mph16.6 kmh 29.45 in997.3 mb - 0.00 in0.0 mm 0.00 in0.0 mm
09:32 PM 51.8°F11.0°C 40.5°F4.7°C 65% 5.1 mph SE8.2 kmh SE 9.8 mph15.8 kmh 29.45 in997.3 mb - 0.00 in0.0 mm 0.00 in0.0 mm
09:37 PM 51.4°F10.8°C 40.1°F4.5°C 65% 4.0 mph NE6.4 kmh NE 9.6 mph15.4 kmh 29.45 in997.3 mb - 0.00 in0.0 mm 0.00 in0.0 mm
09:42 PM 51.3°F10.7°C 40.3°F4.6°C 66% 3.1 mph E5.0 kmh E 6.5 mph10.5 kmh 29.45 in997.3 mb - 0.00 in0.0 mm 0.00 in0.0 mm
09:47 PM 50.9°F10.5°C 39.9°F4.4°C 66% 2.0 mph SSE3.2 kmh SSE 2.0 mph3.2 kmh 29.45 in997.3 mb - 0.00 in0.0 mm 0.00 in0.0 mm
09:52 PM 50.9°F10.5°C 39.9°F4.4°C 66% 1.3 mph S2.1 kmh S 5.1 mph8.2 kmh 29.45 in997.3 mb - 0.00 in0.0 mm 0.00 in0.0 mm
09:57 PM 50.9°F10.5°C 39.9°F4.4°C 66% 2.0 mph SSE3.2 kmh SSE 6.7 mph10.8 kmh 29.45 in997.3 mb - 0.00 in0.0 mm 0.00 in0.0 mm
10:02 PM 50.9°F10.5°C 40.8°F4.9°C 68% 2.2 mph SW3.5 kmh SW 7.2 mph11.6 kmh 29.45 in997.3 mb - 0.00 in0.0 mm 0.00 in0.0 mm
10:07 PM 50.9°F10.5°C 40.3°F4.6°C 67% 4.9 mph WSW7.9 kmh WSW 7.8 mph12.6 kmh 29.45 in997.3 mb - 0.00 in0.0 mm 0.00 in0.0 mm
10:12 PM 50.9°F10.5°C 40.3°F4.6°C 67% 3.6 mph SW5.8 kmh SW 6.9 mph11.1 kmh 29.45 in997.3 mb - 0.00 in0.0 mm 0.00 in0.0 mm
10:17 PM 50.9°F10.5°C 40.3°F4.6°C 67% 3.1 mph SW5.0 kmh SW 5.4 mph8.7 kmh 29.45 in997.3 mb - 0.00 in0.0 mm 0.00 in0.0 mm
10:22 PM 50.9°F10.5°C 40.3°F4.6°C 67% 1.8 mph SW2.9 kmh SW 5.1 mph8.2 kmh 29.45 in997.3 mb - 0.00 in0.0 mm 0.00 in0.0 mm
10:27 PM 50.7°F10.4°C 40.1°F4.5°C 67% 0.4 mph NNW0.6 kmh NNW 2.0 mph3.2 kmh 29.45 in997.3 mb - 0.00 in0.0 mm 0.00 in0.0 mm
10:32 PM 50.7°F10.4°C 40.1°F4.5°C 67% 0.9 mph NW1.4 kmh NW 0.9 mph1.4 kmh 29.48 in998.3 mb - 0.00 in0.0 mm 0.00 in0.0 mm
10:37 PM 50.5°F10.3°C 40.5°F4.7°C 68% Calm Calm 0.7 mph1.1 kmh 29.48 in998.3 mb - 0.00 in0.0 mm 0.00 in0.0 mm
10:42 PM 50.4°F10.2°C 41.0°F5.0°C 70% 0.2 mph NW0.3 kmh NW 1.3 mph2.1 kmh 29.48 in998.3 mb - 0.00 in0.0 mm 0.00 in0.0 mm
10:47 PM 50.2°F10.1°C 40.5°F4.7°C 69% 0.7 mph NW1.1 kmh NW 5.4 mph8.7 kmh 29.48 in998.3 mb - 0.00 in0.0 mm 0.00 in0.0 mm
10:52 PM 50.2°F10.1°C 40.8°F4.9°C 70% 0.7 mph NW1.1 kmh NW 2.0 mph3.2 kmh 29.48 in998.3 mb - 0.00 in0.0 mm 0.00 in0.0 mm
10:57 PM 50.0°F10.0°C 40.6°F4.8°C 70% Calm Calm -- 29.48 in998.3 mb - 0.00 in0.0 mm 0.00 in0.0 mm
11:02 PM 50.0°F10.0°C 40.6°F4.8°C 70% 0.9 mph NNW1.4 kmh NNW 2.9 mph4.7 kmh 29.48 in998.3 mb - 0.00 in0.0 mm 0.00 in0.0 mm
11:07 PM 50.2°F10.1°C 40.5°F4.7°C 69% 0.7 mph N1.1 kmh N 2.5 mph4.0 kmh 29.48 in998.3 mb - 0.00 in0.0 mm 0.00 in0.0 mm
11:12 PM 50.2°F10.1°C 40.5°F4.7°C 69% 0.7 mph N1.1 kmh N 2.0 mph3.2 kmh 29.48 in998.3 mb - 0.00 in0.0 mm 0.00 in0.0 mm
11:17 PM 50.2°F10.1°C 40.5°F4.7°C 69% Calm Calm -- 29.48 in998.3 mb - 0.00 in0.0 mm 0.00 in0.0 mm
11:22 PM 50.0°F10.0°C 40.6°F4.8°C 70% Calm Calm -- 29.48 in998.3 mb - 0.00 in0.0 mm 0.00 in0.0 mm
11:27 PM 50.0°F10.0°C 40.6°F4.8°C 70% Calm Calm -- 29.48 in998.3 mb - 0.00 in0.0 mm 0.00 in0.0 mm
11:32 PM 49.8°F9.9°C 40.8°F4.9°C 71% Calm Calm -- 29.51 in999.3 mb - 0.00 in0.0 mm 0.00 in0.0 mm
11:37 PM 49.6°F9.8°C 41.4°F5.2°C 73% Calm Calm -- 29.51 in999.3 mb - 0.00 in0.0 mm 0.00 in0.0 mm
11:42 PM 49.6°F9.8°C 41.7°F5.4°C 74% Calm Calm -- 29.51 in999.3 mb - 0.00 in0.0 mm 0.00 in0.0 mm
11:47 PM 49.6°F9.8°C 41.4°F5.2°C 73% 2.5 mph SE4.0 kmh SE 4.3 mph6.9 kmh 29.51 in999.3 mb - 0.00 in0.0 mm 0.00 in0.0 mm
11:52 PM 49.3°F9.6°C 41.7°F5.4°C 75% 1.6 mph SE2.6 kmh SE 3.6 mph5.8 kmh 29.51 in999.3 mb - 0.00 in0.0 mm 0.00 in0.0 mm
11:57 PM 48.9°F9.4°C 41.4°F5.2°C 75% 2.5 mph N4.0 kmh N 4.3 mph6.9 kmh 29.51 in999.3 mb - 0.00 in0.0 mm 0.00 in0.0 mm